Time;durP1;ratioP1;P1;durP2;ratioP2;P2;SDS_P1;SDS_P2;PMS_P1;PMS_P2;Temp;Humidity;BMP_temperature;BMP_pressure;BME280_temperature;BME280_humidity;BME280_pressure;Samples;Min_cycle;Max_cycle;Signal;HPM_P1;HPM_P2
2022/10/17 00:02:03;;;;;;;21.62;12.80;;;;;;;;;;4315371;33;20091;-78
2022/10/17 00:04:31;;;;;;;14.23;11.77;;;;;;;;;;4319883;32;20354;-78
2022/10/17 00:06:57;;;;;;;18.37;13.95;;;;;;;;;;4376486;32;20533;-79
2022/10/17 00:09:45;;;;;;;15.38;13.75;;;;;;;;;;4376782;32;20027;-79
2022/10/17 00:12:22;;;;;;;18.92;15.18;;;;;;;;;;4376172;32;20133;-79
2022/10/17 00:14:47;;;;;;;17.65;12.27;;;;;;;;;;4376473;32;20073;-78
2022/10/17 00:17:14;;;;;;;18.87;13.43;;;;;;;;;;4373198;32;20030;-78
2022/10/17 00:19:49;;;;;;;21.40;13.60;;;;;;;;;;4390760;32;20097;-79
2022/10/17 00:22:15;;;;;;;14.77;13.23;;;;;;;;;;4391856;32;20015;-79
2022/10/17 00:24:51;;;;;;;23.10;17.00;;;;;;;;;;4390776;32;20019;-79
2022/10/17 00:27:17;;;;;;;17.98;14.57;;;;;;;;;;4377435;32;20019;-79
2022/10/17 00:30:18;;;;;;;18.08;16.23;;;;;;;;;;4377218;32;20019;-79
2022/10/17 00:32:58;;;;;;;15.60;12.63;;;;;;;;;;4387490;32;20022;-79
2022/10/17 00:35:26;;;;;;;21.20;16.33;;;;;;;;;;4377046;32;20454;-78
2022/10/17 00:37:51;;;;;;;17.05;12.32;;;;;;;;;;4419064;27;20096;-80
2022/10/17 00:40:16;;;;;;;20.15;16.77;;;;;;;;;;4418376;32;20026;-80
2022/10/17 00:42:42;;;;;;;17.50;15.23;;;;;;;;;;4406388;32;20081;-80
2022/10/17 00:45:12;;;;;;;20.02;15.73;;;;;;;;;;4406835;32;20445;-80
2022/10/17 00:47:38;;;;;;;18.60;14.15;;;;;;;;;;4407238;32;20072;-80
2022/10/17 00:50:04;;;;;;;22.48;17.00;;;;;;;;;;4406710;32;20074;-80
2022/10/17 00:52:30;;;;;;;25.75;18.08;;;;;;;;;;4393828;32;20022;-80
2022/10/17 00:54:57;;;;;;;20.52;17.90;;;;;;;;;;4407529;32;20048;-80
2022/10/17 00:57:22;;;;;;;20.23;16.95;;;;;;;;;;4407130;32;20065;-80
2022/10/17 00:59:50;;;;;;;27.58;19.15;;;;;;;;;;4405583;32;20060;-80
2022/10/17 01:02:16;;;;;;;19.05;16.83;;;;;;;;;;4392989;32;20494;-80
2022/10/17 01:04:43;;;;;;;24.75;18.80;;;;;;;;;;4405580;32;20072;-80
2022/10/17 01:07:09;;;;;;;25.00;17.50;;;;;;;;;;4406190;32;20091;-80
2022/10/17 01:09:35;;;;;;;18.73;16.10;;;;;;;;;;4405577;32;20097;-80
2022/10/17 01:12:09;;;;;;;25.25;19.12;;;;;;;;;;4419003;32;20056;-80
2022/10/17 01:14:34;;;;;;;24.05;18.92;;;;;;;;;;4408666;32;20052;-80
2022/10/17 01:17:02;;;;;;;21.62;17.67;;;;;;;;;;4411806;32;20018;-80
2022/10/17 01:19:54;;;;;;;20.08;14.63;;;;;;;;;;4405310;32;20114;-80
2022/10/17 01:22:19;;;;;;;23.60;19.08;;;;;;;;;;4405760;32;20390;-80
2022/10/17 01:24:45;;;;;;;23.52;15.38;;;;;;;;;;4405084;32;20363;-80
2022/10/17 01:27:27;;;;;;;18.45;15.55;;;;;;;;;;4416324;32;20085;-80
2022/10/17 01:30:09;;;;;;;23.60;18.90;;;;;;;;;;4413692;32;20487;-80
2022/10/17 01:32:41;;;;;;;21.30;15.73;;;;;;;;;;4417362;32;20022;-80
2022/10/17 01:35:33;;;;;;;22.25;18.58;;;;;;;;;;4392898;32;20026;-80
2022/10/17 01:38:02;;;;;;;20.83;18.50;;;;;;;;;;4409397;32;20107;-81
2022/10/17 01:40:30;;;;;;;23.70;19.98;;;;;;;;;;4424210;32;20073;-80
2022/10/17 01:42:58;;;;;;;27.33;21.20;;;;;;;;;;4437798;32;20022;-79
2022/10/17 01:45:31;;;;;;;23.33;20.33;;;;;;;;;;4437669;32;20062;-80
2022/10/17 01:47:59;;;;;;;24.23;21.62;;;;;;;;;;4438075;32;20021;-80
2022/10/17 01:50:28;;;;;;;24.98;20.67;;;;;;;;;;4420349;32;20041;-81
2022/10/17 01:52:56;;;;;;;25.92;22.15;;;;;;;;;;4425669;32;20144;-80
2022/10/17 01:55:25;;;;;;;29.77;21.80;;;;;;;;;;4431239;32;20071;-80
2022/10/17 01:57:51;;;;;;;20.42;18.42;;;;;;;;;;4436683;32;20017;-80
2022/10/17 02:00:18;;;;;;;29.27;20.70;;;;;;;;;;4422042;32;20060;-80
2022/10/17 02:02:45;;;;;;;24.67;18.90;;;;;;;;;;4408077;32;20034;-79
2022/10/17 02:05:11;;;;;;;22.58;19.35;;;;;;;;;;4420866;32;20014;-80
2022/10/17 02:07:36;;;;;;;27.40;20.77;;;;;;;;;;4407858;32;20075;-80
2022/10/17 02:10:03;;;;;;;19.20;15.65;;;;;;;;;;4420836;32;20026;-80
2022/10/17 02:12:28;;;;;;;18.00;16.15;;;;;;;;;;4421344;32;20048;-80
2022/10/17 02:14:59;;;;;;;23.90;19.90;;;;;;;;;;4406438;32;20066;-80
2022/10/17 02:17:36;;;;;;;26.27;20.33;;;;;;;;;;4423424;32;20033;-80
2022/10/17 02:20:12;;;;;;;24.83;19.35;;;;;;;;;;4421956;32;20010;-81
2022/10/17 02:22:43;;;;;;;21.37;17.10;;;;;;;;;;4425671;32;20052;-79
2022/10/17 02:25:09;;;;;;;26.62;19.30;;;;;;;;;;4428067;32;20089;-80
2022/10/17 02:27:34;;;;;;;;;;;;;;;;;;4426669;32;20045;-81
2022/10/17 02:30:09;;;;;;;29.42;20.23;;;;;;;;;;4422047;32;19986;-81
2022/10/17 02:33:03;;;;;;;27.35;21.23;;;;;;;;;;4436170;32;20022;-81
2022/10/17 02:35:30;;;;;;;28.38;20.42;;;;;;;;;;4424898;32;20034;-81
2022/10/17 02:37:55;;;;;;;26.90;22.23;;;;;;;;;;4424663;32;20022;-80
2022/10/17 02:40:22;;;;;;;26.58;21.58;;;;;;;;;;4438016;32;20393;-81
2022/10/17 02:42:48;;;;;;;26.90;20.17;;;;;;;;;;4424050;32;20026;-80
2022/10/17 02:45:14;;;;;;;27.77;20.75;;;;;;;;;;4444035;32;20354;-80
2022/10/17 02:47:39;;;;;;;24.80;19.55;;;;;;;;;;4421890;32;20048;-80
2022/10/17 02:50:05;;;;;;;22.42;19.67;;;;;;;;;;4415557;32;20037;-81
2022/10/17 02:52:35;;;;;;;21.70;19.23;;;;;;;;;;4424753;32;20129;-81
2022/10/17 02:55:17;;;;;;;22.37;19.35;;;;;;;;;;4409973;32;20033;-81
2022/10/17 02:57:48;;;;;;;28.83;19.42;;;;;;;;;;4433008;32;20395;-80
2022/10/17 03:00:15;;;;;;;29.37;19.62;;;;;;;;;;4424445;32;20038;-81
2022/10/17 03:02:42;;;;;;;26.02;20.37;;;;;;;;;;4422640;32;20321;-81
2022/10/17 03:05:07;;;;;;;23.38;19.35;;;;;;;;;;4422331;32;20068;-81
2022/10/17 03:07:32;;;;;;;21.90;19.42;;;;;;;;;;4424428;32;20530;-81
2022/10/17 03:09:57;;;;;;;22.27;18.20;;;;;;;;;;4422901;32;20057;-81
2022/10/17 03:12:23;;;;;;;26.37;19.60;;;;;;;;;;4422387;32;20148;-81
2022/10/17 03:14:48;;;;;;;29.65;20.15;;;;;;;;;;4423089;32;20340;-81
2022/10/17 03:17:13;;;;;;;19.92;17.80;;;;;;;;;;4427276;32;20045;-81
2022/10/17 03:19:38;;;;;;;20.80;18.33;;;;;;;;;;4422382;32;20022;-81
2022/10/17 03:22:03;;;;;;;24.20;19.67;;;;;;;;;;4423251;32;20372;-81
2022/10/17 03:24:28;;;;;;;22.35;18.65;;;;;;;;;;4422337;32;20113;-81
2022/10/17 03:26:54;;;;;;;26.30;19.20;;;;;;;;;;4422400;32;20045;-81
2022/10/17 03:29:19;;;;;;;25.40;19.48;;;;;;;;;;4422926;32;20159;-81
2022/10/17 03:31:44;;;;;;;30.45;21.08;;;;;;;;;;4423182;32;20022;-81
2022/10/17 03:34:09;;;;;;;24.33;18.73;;;;;;;;;;4423650;32;20067;-81
2022/10/17 03:36:34;;;;;;;31.37;20.45;;;;;;;;;;4418045;32;20022;-81
2022/10/17 03:38:59;;;;;;;29.63;20.65;;;;;;;;;;4424166;32;20100;-81
2022/10/17 03:41:25;;;;;;;27.75;20.08;;;;;;;;;;4439114;32;20101;-81
2022/10/17 03:43:51;;;;;;;26.35;20.23;;;;;;;;;;4433276;32;20093;-81
2022/10/17 03:46:16;;;;;;;27.73;21.73;;;;;;;;;;4421824;32;20122;-81
2022/10/17 03:48:41;;;;;;;22.77;19.53;;;;;;;;;;4407503;32;20325;-81
2022/10/17 03:51:08;;;;;;;32.25;20.88;;;;;;;;;;4421959;32;20105;-81
2022/10/17 03:53:33;;;;;;;29.35;20.37;;;;;;;;;;4423726;32;20057;-80
2022/10/17 03:56:28;;;;;;;27.67;20.95;;;;;;;;;;4421887;32;20078;-80
2022/10/17 03:58:53;;;;;;;25.48;19.80;;;;;;;;;;4408881;32;20061;-81
2022/10/17 04:01:18;;;;;;;29.45;22.25;;;;;;;;;;4422061;32;20396;-81
2022/10/17 04:03:47;;;;;;;31.87;20.67;;;;;;;;;;4422635;32;20388;-81
2022/10/17 04:06:12;;;;;;;30.02;19.05;;;;;;;;;;4407518;32;20029;-81
2022/10/17 04:08:38;;;;;;;25.17;20.37;;;;;;;;;;4421246;32;20060;-80
2022/10/17 04:11:04;;;;;;;27.50;20.52;;;;;;;;;;4421433;32;20045;-81
2022/10/17 04:13:29;;;;;;;30.55;21.75;;;;;;;;;;4421736;32;20056;-81
2022/10/17 04:15:59;;;;;;;25.85;19.87;;;;;;;;;;4425570;32;20408;-81
2022/10/17 04:18:24;;;;;;;23.02;19.35;;;;;;;;;;4437554;32;20021;-80
2022/10/17 04:20:50;;;;;;;23.40;19.23;;;;;;;;;;4434302;32;20109;-80
2022/10/17 04:23:15;;;;;;;25.88;20.58;;;;;;;;;;4423249;32;20354;-80
2022/10/17 04:25:40;;;;;;;26.23;19.75;;;;;;;;;;4425615;32;20056;-81
2022/10/17 04:28:05;;;;;;;21.58;17.30;;;;;;;;;;4439410;32;20022;-81
2022/10/17 04:30:30;;;;;;;23.62;19.12;;;;;;;;;;4440070;32;20022;-81
2022/10/17 04:32:56;;;;;;;25.80;18.73;;;;;;;;;;4438482;32;20058;-81
2022/10/17 04:35:21;;;;;;;23.70;16.92;;;;;;;;;;4437980;32;20399;-80
2022/10/17 04:37:46;;;;;;;24.87;19.12;;;;;;;;;;4421948;32;20034;-80
2022/10/17 04:40:11;;;;;;;23.25;16.65;;;;;;;;;;4423965;32;20030;-80
2022/10/17 04:42:36;;;;;;;21.85;17.17;;;;;;;;;;4424444;32;20017;-80
2022/10/17 04:45:02;;;;;;;23.62;17.90;;;;;;;;;;4422228;32;20082;-81
2022/10/17 04:47:27;;;;;;;21.05;17.02;;;;;;;;;;4421753;32;20026;-80
2022/10/17 04:49:52;;;;;;;19.55;15.95;;;;;;;;;;4422359;32;20050;-80
2022/10/17 04:52:17;;;;;;;22.23;17.48;;;;;;;;;;4421680;32;20328;-81
2022/10/17 04:54:42;;;;;;;19.85;17.42;;;;;;;;;;4421880;32;20053;-80
2022/10/17 04:57:08;;;;;;;22.25;17.15;;;;;;;;;;4444875;32;20022;-80
2022/10/17 04:59:33;;;;;;;26.15;16.95;;;;;;;;;;4449162;32;20056;-80
2022/10/17 05:01:58;;;;;;;23.17;17.15;;;;;;;;;;4442004;32;20018;-80
2022/10/17 05:04:24;;;;;;;20.37;16.35;;;;;;;;;;4439548;32;20078;-80
2022/10/17 05:06:49;;;;;;;28.17;16.42;;;;;;;;;;4427851;32;20067;-80
2022/10/17 05:09:14;;;;;;;21.12;16.67;;;;;;;;;;4438397;32;20041;-80
2022/10/17 05:11:41;;;;;;;24.35;16.90;;;;;;;;;;4423149;32;20025;-81
2022/10/17 05:14:06;;;;;;;24.33;17.35;;;;;;;;;;4427782;32;20203;-80
2022/10/17 05:16:31;;;;;;;20.40;16.90;;;;;;;;;;4410353;32;20015;-79
2022/10/17 05:18:57;;;;;;;17.73;15.82;;;;;;;;;;4432898;32;20068;-78
2022/10/17 05:21:23;;;;;;;23.25;16.35;;;;;;;;;;4429019;32;20018;-79
2022/10/17 05:23:48;;;;;;;19.92;17.55;;;;;;;;;;4428910;32;20042;-79
2022/10/17 05:26:13;;;;;;;23.12;17.27;;;;;;;;;;4429747;32;20048;-80
2022/10/17 05:28:39;;;;;;;26.37;18.35;;;;;;;;;;4429188;32;20014;-80
2022/10/17 05:31:05;;;;;;;23.40;16.83;;;;;;;;;;4423722;32;20147;-80
2022/10/17 05:33:30;;;;;;;19.17;15.70;;;;;;;;;;4422873;32;20018;-80
2022/10/17 05:35:56;;;;;;;21.48;16.05;;;;;;;;;;4420982;32;20038;-80
2022/10/17 05:38:21;;;;;;;21.90;17.73;;;;;;;;;;4421168;32;20030;-80
2022/10/17 05:40:46;;;;;;;21.95;17.00;;;;;;;;;;4421240;32;20022;-80
2022/10/17 05:43:13;;;;;;;25.23;17.27;;;;;;;;;;4432848;32;20443;-80
2022/10/17 05:45:38;;;;;;;24.42;18.75;;;;;;;;;;4440966;32;20045;-80
2022/10/17 05:48:04;;;;;;;20.73;16.87;;;;;;;;;;4450099;32;20045;-81
2022/10/17 05:50:29;;;;;;;24.05;17.20;;;;;;;;;;4438531;32;20411;-81
2022/10/17 05:52:54;;;;;;;18.48;15.65;;;;;;;;;;4435868;32;20018;-81
2022/10/17 05:55:19;;;;;;;26.52;16.77;;;;;;;;;;4423380;32;20090;-81
2022/10/17 05:57:44;;;;;;;22.60;16.55;;;;;;;;;;4436183;32;20093;-81
2022/10/17 06:00:10;;;;;;;24.17;16.90;;;;;;;;;;4435736;32;20049;-80
2022/10/17 06:02:35;;;;;;;21.05;16.15;;;;;;;;;;4427586;32;20083;-81
2022/10/17 06:05:00;;;;;;;25.73;16.60;;;;;;;;;;4422946;32;20075;-82
2022/10/17 06:07:25;;;;;;;22.45;16.15;;;;;;;;;;4436425;32;20144;-81
2022/10/17 06:09:51;;;;;;;23.75;15.38;;;;;;;;;;4438158;32;20460;-82
2022/10/17 06:12:16;;;;;;;18.50;15.65;;;;;;;;;;4439924;32;20018;-82
2022/10/17 06:14:41;;;;;;;23.48;16.02;;;;;;;;;;4440718;32;20021;-81
2022/10/17 06:17:06;;;;;;;30.17;15.63;;;;;;;;;;4424566;32;20044;-80
2022/10/17 06:19:31;;;;;;;17.52;15.13;;;;;;;;;;4425793;32;20044;-81
2022/10/17 06:21:57;;;;;;;21.27;15.82;;;;;;;;;;4440070;32;20095;-81
2022/10/17 06:24:22;;;;;;;21.50;15.35;;;;;;;;;;4438865;32;20018;-80
2022/10/17 06:26:48;;;;;;;23.30;16.02;;;;;;;;;;4438920;32;20038;-81
2022/10/17 06:29:13;;;;;;;19.90;15.00;;;;;;;;;;4439702;32;20072;-81
2022/10/17 06:31:39;;;;;;;23.08;14.75;;;;;;;;;;4421393;32;20457;-81
2022/10/17 06:34:04;;;;;;;18.37;15.13;;;;;;;;;;4424096;32;20017;-80
2022/10/17 06:36:29;;;;;;;19.17;15.52;;;;;;;;;;4409694;32;20022;-81
2022/10/17 06:38:54;;;;;;;26.02;16.60;;;;;;;;;;4422893;32;20151;-81
2022/10/17 06:41:20;;;;;;;22.37;15.77;;;;;;;;;;4423828;32;20139;-81
2022/10/17 06:43:46;;;;;;;22.37;15.63;;;;;;;;;;4423193;32;20133;-81
2022/10/17 06:46:12;;;;;;;17.62;14.55;;;;;;;;;;4422701;32;20060;-81
2022/10/17 06:48:37;;;;;;;18.83;14.98;;;;;;;;;;4422439;32;20038;-81
2022/10/17 06:51:03;;;;;;;26.75;15.85;;;;;;;;;;4408638;32;20509;-81
2022/10/17 06:53:29;;;;;;;20.08;15.23;;;;;;;;;;4422588;32;20057;-80
2022/10/17 06:55:56;;;;;;;21.42;14.73;;;;;;;;;;4423504;32;20056;-80
2022/10/17 06:58:22;;;;;;;19.37;14.35;;;;;;;;;;4408541;32;20101;-80
2022/10/17 07:00:47;;;;;;;17.75;14.45;;;;;;;;;;4423350;32;20018;-80
2022/10/17 07:03:12;;;;;;;24.43;14.80;;;;;;;;;;4423685;32;20145;-80
2022/10/17 07:05:37;;;;;;;15.98;13.88;;;;;;;;;;4422124;32;20571;-80
2022/10/17 07:08:06;;;;;;;17.45;13.40;;;;;;;;;;4414644;32;20112;-81
2022/10/17 07:10:36;;;;;;;19.90;15.88;;;;;;;;;;4430499;32;20018;-80
2022/10/17 07:13:02;;;;;;;19.35;14.93;;;;;;;;;;4430931;32;20059;-80
2022/10/17 07:15:27;;;;;;;16.60;13.77;;;;;;;;;;4422797;32;20026;-80
2022/10/17 07:17:52;;;;;;;28.65;16.65;;;;;;;;;;4423842;32;20041;-80
2022/10/17 07:20:17;;;;;;;25.15;13.95;;;;;;;;;;4421886;32;20022;-80
2022/10/17 07:22:43;;;;;;;20.85;15.07;;;;;;;;;;4422335;32;20045;-80
2022/10/17 07:25:08;;;;;;;22.05;15.07;;;;;;;;;;4422210;32;20022;-80
2022/10/17 07:27:33;;;;;;;23.45;14.05;;;;;;;;;;4424056;32;20057;-81
2022/10/17 07:29:59;;;;;;;16.77;13.77;;;;;;;;;;4424735;32;20165;-80
2022/10/17 07:32:24;;;;;;;17.98;14.93;;;;;;;;;;4423465;32;20458;-80
2022/10/17 07:34:49;;;;;;;22.52;15.15;;;;;;;;;;4423532;32;20363;-80
2022/10/17 07:37:14;;;;;;;18.80;14.47;;;;;;;;;;4422675;32;20063;-80
2022/10/17 07:39:40;;;;;;;18.73;14.85;;;;;;;;;;4421498;32;20147;-80
2022/10/17 07:42:06;;;;;;;27.27;15.68;;;;;;;;;;4421668;32;20021;-80
2022/10/17 07:44:32;;;;;;;27.85;15.68;;;;;;;;;;4408609;32;20385;-79
2022/10/17 07:46:57;;;;;;;18.73;15.13;;;;;;;;;;4423668;32;20380;-78
2022/10/17 07:49:22;;;;;;;25.12;16.12;;;;;;;;;;4408311;32;20049;-78
2022/10/17 07:51:48;;;;;;;22.70;16.08;;;;;;;;;;4425666;32;20045;-78
2022/10/17 07:54:13;;;;;;;22.05;15.98;;;;;;;;;;4421264;32;20084;-77
2022/10/17 07:56:38;;;;;;;29.87;15.60;;;;;;;;;;4422249;32;20022;-77
2022/10/17 07:59:03;;;;;;;18.62;15.45;;;;;;;;;;4422138;32;20375;-76
2022/10/17 08:01:29;;;;;;;19.17;15.68;;;;;;;;;;4422847;32;20067;-77
2022/10/17 08:03:54;;;;;;;26.33;17.40;;;;;;;;;;4421887;32;20015;-76
2022/10/17 08:06:19;;;;;;;25.33;16.62;;;;;;;;;;4423142;32;20441;-77
2022/10/17 08:08:44;;;;;;;21.75;15.48;;;;;;;;;;4423215;32;20022;-76
2022/10/17 08:11:10;;;;;;;27.37;17.12;;;;;;;;;;4421742;32;20022;-77
2022/10/17 08:13:36;;;;;;;25.55;16.83;;;;;;;;;;4423940;32;20044;-76
2022/10/17 08:16:02;;;;;;;24.27;17.27;;;;;;;;;;4422596;32;20014;-78
2022/10/17 08:18:27;;;;;;;33.20;20.12;;;;;;;;;;4421660;32;20089;-76
2022/10/17 08:20:53;;;;;;;25.90;18.58;;;;;;;;;;4421183;32;20061;-77
2022/10/17 08:23:18;;;;;;;19.85;16.50;;;;;;;;;;4422433;32;20030;-77
2022/10/17 08:25:43;;;;;;;26.57;18.27;;;;;;;;;;4421235;32;20491;-77
2022/10/17 08:28:08;;;;;;;19.25;14.75;;;;;;;;;;4422639;32;20139;-77
2022/10/17 08:30:33;;;;;;;20.42;15.88;;;;;;;;;;4420617;32;20407;-77
2022/10/17 08:32:59;;;;;;;23.73;17.30;;;;;;;;;;4420169;32;20041;-77
2022/10/17 08:35:24;;;;;;;24.77;17.75;;;;;;;;;;4421672;32;20029;-77
2022/10/17 08:37:49;;;;;;;25.12;19.02;;;;;;;;;;4408091;32;20046;-76
2022/10/17 08:40:25;;;;;;;26.87;17.98;;;;;;;;;;4408276;32;20011;-76
2022/10/17 08:42:50;;;;;;;25.67;17.58;;;;;;;;;;4408652;32;20298;-77
2022/10/17 08:45:28;;;;;;;24.75;17.70;;;;;;;;;;4423756;32;20372;-77
2022/10/17 08:47:57;;;;;;;23.85;18.12;;;;;;;;;;4421393;32;20110;-77
2022/10/17 08:50:51;;;;;;;27.40;18.98;;;;;;;;;;4407017;32;20446;-77
2022/10/17 08:53:35;;;;;;;27.08;18.42;;;;;;;;;;4407400;32;20420;-77
2022/10/17 08:56:20;;;;;;;22.62;16.80;;;;;;;;;;4407210;32;20094;-78
2022/10/17 08:58:45;;;;;;;28.12;17.92;;;;;;;;;;4406486;32;20306;-77
2022/10/17 09:01:21;;;;;;;25.77;16.77;;;;;;;;;;4420991;32;20044;-78
2022/10/17 09:03:52;;;;;;;28.35;19.27;;;;;;;;;;4420835;32;20048;-78
2022/10/17 09:06:28;;;;;;;28.83;19.40;;;;;;;;;;4420533;32;20029;-77
2022/10/17 09:09:13;;;;;;;22.13;17.73;;;;;;;;;;4420362;32;20073;-79
2022/10/17 09:11:47;;;;;;;25.80;18.48;;;;;;;;;;4420874;32;20023;-79
2022/10/17 09:14:25;;;;;;;33.83;23.33;;;;;;;;;;4420996;32;20018;-77
2022/10/17 09:17:08;;;;;;;23.80;19.12;;;;;;;;;;4420317;32;20026;-78
2022/10/17 09:19:36;;;;;;;27.83;18.48;;;;;;;;;;4420726;32;20057;-77
2022/10/17 09:22:08;;;;;;;25.70;17.95;;;;;;;;;;4422577;32;20067;-77
2022/10/17 09:24:42;;;;;;;28.85;19.25;;;;;;;;;;4424815;32;20057;-78
2022/10/17 09:27:30;;;;;;;23.73;15.82;;;;;;;;;;4421977;32;20033;-78
2022/10/17 09:30:15;;;;;;;28.50;18.08;;;;;;;;;;4399202;32;20051;-78
2022/10/17 09:32:41;;;;;;;24.83;17.37;;;;;;;;;;4422387;32;20367;-78
2022/10/17 09:35:11;;;;;;;19.17;14.43;;;;;;;;;;4420621;32;20143;-78
2022/10/17 09:37:36;;;;;;;24.20;18.25;;;;;;;;;;4420178;32;20067;-78
2022/10/17 09:40:03;;;;;;;25.73;14.95;;;;;;;;;;4421502;32;20023;-78
2022/10/17 09:42:29;;;;;;;28.65;16.90;;;;;;;;;;4420759;32;20329;-78
2022/10/17 09:45:03;;;;;;;21.00;16.05;;;;;;;;;;4425165;32;20087;-79
2022/10/17 09:47:33;;;;;;;22.23;15.90;;;;;;;;;;4425505;32;20049;-79
2022/10/17 09:50:00;;;;;;;25.05;17.40;;;;;;;;;;4425330;32;20413;-79
2022/10/17 09:52:32;;;;;;;19.25;15.38;;;;;;;;;;4423786;32;20376;-77
2022/10/17 09:55:04;;;;;;;24.92;17.45;;;;;;;;;;4423509;32;20059;-77
2022/10/17 09:57:49;;;;;;;27.17;16.58;;;;;;;;;;4409462;32;20425;-78
2022/10/17 10:00:19;;;;;;;22.25;17.20;;;;;;;;;;4424241;32;20064;-78
2022/10/17 10:02:45;;;;;;;23.92;17.20;;;;;;;;;;4423761;32;20013;-78
2022/10/17 10:05:17;;;;;;;22.55;16.73;;;;;;;;;;4424554;32;20083;-77
2022/10/17 10:07:45;;;;;;;20.95;15.32;;;;;;;;;;4424430;32;20047;-78
2022/10/17 10:10:22;;;;;;;18.25;14.87;;;;;;;;;;4424047;32;20029;-78
2022/10/17 10:13:01;;;;;;;24.05;15.90;;;;;;;;;;4409000;32;20019;-78
2022/10/17 10:15:29;;;;;;;21.65;14.75;;;;;;;;;;4423320;32;20059;-77
2022/10/17 10:17:54;;;;;;;15.60;12.43;;;;;;;;;;4422634;32;20068;-77
2022/10/17 10:20:34;;;;;;;20.45;14.05;;;;;;;;;;4422684;32;20048;-77
2022/10/17 10:23:21;;;;;;;19.60;14.05;;;;;;;;;;4422854;32;20035;-76
2022/10/17 10:25:56;;;;;;;22.80;14.82;;;;;;;;;;4422400;32;20363;-76
2022/10/17 10:28:24;;;;;;;18.77;15.10;;;;;;;;;;4409007;32;20093;-77
2022/10/17 10:30:51;;;;;;;23.60;15.77;;;;;;;;;;4424553;32;20038;-77
2022/10/17 10:33:18;;;;;;;20.58;14.27;;;;;;;;;;4423219;32;20018;-77
2022/10/17 10:35:50;;;;;;;24.95;15.52;;;;;;;;;;4423090;32;20053;-77
2022/10/17 10:38:16;;;;;;;22.65;15.00;;;;;;;;;;4408650;32;20030;-77
2022/10/17 10:40:46;;;;;;;18.83;13.98;;;;;;;;;;4409263;32;20022;-77
2022/10/17 10:43:21;;;;;;;18.70;14.65;;;;;;;;;;4423285;32;20060;-78
2022/10/17 10:45:46;;;;;;;25.85;15.55;;;;;;;;;;4422381;32;20026;-77
2022/10/17 10:48:22;;;;;;;19.23;13.80;;;;;;;;;;4408742;32;20038;-77
2022/10/17 10:50:48;;;;;;;;;;;;;;;;;;4422971;32;20022;-77
2022/10/17 10:53:19;;;;;;;15.88;12.45;;;;;;;;;;4423940;32;19963;-77
2022/10/17 10:55:47;;;;;;;19.10;12.20;;;;;;;;;;4423908;32;20071;-78
2022/10/17 10:58:31;;;;;;;15.18;10.20;;;;;;;;;;4408284;32;20086;-78
2022/10/17 11:00:59;;;;;;;12.63;9.15;;;;;;;;;;4422048;32;20022;-77
2022/10/17 11:03:31;;;;;;;11.57;8.57;;;;;;;;;;4408944;32;20058;-77
2022/10/17 11:06:02;;;;;;;15.20;9.77;;;;;;;;;;4423656;32;20030;-78
2022/10/17 11:08:32;;;;;;;13.10;10.18;;;;;;;;;;4423554;32;20075;-77
2022/10/17 11:11:16;;;;;;;15.00;9.90;;;;;;;;;;4422498;32;20053;-77
2022/10/17 11:13:47;;;;;;;13.05;9.07;;;;;;;;;;4423165;32;20129;-77
2022/10/17 11:16:20;;;;;;;11.32;9.93;;;;;;;;;;4409270;32;20029;-77
2022/10/17 11:18:53;;;;;;;15.70;9.20;;;;;;;;;;4422771;32;20056;-77
2022/10/17 11:21:22;;;;;;;15.27;9.98;;;;;;;;;;4422857;32;20026;-77
2022/10/17 11:23:55;;;;;;;13.40;9.18;;;;;;;;;;4409200;32;20019;-77
2022/10/17 11:26:32;;;;;;;17.05;8.65;;;;;;;;;;4423549;32;20026;-77
2022/10/17 11:29:00;;;;;;;12.63;9.88;;;;;;;;;;4422792;32;20419;-77
2022/10/17 11:31:29;;;;;;;15.75;9.98;;;;;;;;;;4422056;32;20048;-77
2022/10/17 11:34:02;;;;;;;12.82;9.10;;;;;;;;;;4424243;32;20435;-79
2022/10/17 11:36:29;;;;;;;11.18;9.45;;;;;;;;;;4408220;32;20022;-79
2022/10/17 11:38:57;;;;;;;12.50;10.82;;;;;;;;;;4392908;32;20046;-78
2022/10/17 11:41:28;;;;;;;18.15;10.32;;;;;;;;;;4394015;32;20019;-78
2022/10/17 11:43:55;;;;;;;11.50;9.55;;;;;;;;;;4406519;32;20140;-77
2022/10/17 11:46:22;;;;;;;12.15;9.32;;;;;;;;;;4406872;32;20083;-78
2022/10/17 11:48:57;;;;;;;10.32;8.98;;;;;;;;;;4392762;32;20035;-79
2022/10/17 11:51:22;;;;;;;13.98;9.30;;;;;;;;;;4417842;32;20424;-79
2022/10/17 11:54:17;;;;;;;12.55;9.30;;;;;;;;;;4424366;32;20045;-79
2022/10/17 11:57:12;;;;;;;14.40;10.50;;;;;;;;;;4392662;32;20434;-78
2022/10/17 11:59:57;;;;;;;13.15;9.85;;;;;;;;;;4380451;32;20062;-78
2022/10/17 12:02:22;;;;;;;12.48;9.30;;;;;;;;;;4421180;32;20455;-84
2022/10/17 12:04:51;;;;;;;14.20;9.40;;;;;;;;;;4408103;32;20030;-77
2022/10/17 12:07:21;;;;;;;12.55;8.27;;;;;;;;;;4421212;32;20017;-77
2022/10/17 12:09:55;;;;;;;10.38;7.60;;;;;;;;;;4421403;32;20018;-77
2022/10/17 12:12:28;;;;;;;11.32;7.40;;;;;;;;;;4407721;32;20097;-76
2022/10/17 12:15:13;;;;;;;10.50;6.87;;;;;;;;;;4407738;32;20057;-77
2022/10/17 12:17:43;;;;;;;9.70;6.85;;;;;;;;;;4407625;32;20018;-76
2022/10/17 12:20:24;;;;;;;11.88;6.68;;;;;;;;;;4422883;32;20021;-77
2022/10/17 12:23:12;;;;;;;8.20;5.93;;;;;;;;;;4422559;32;20053;-77
2022/10/17 12:25:48;;;;;;;12.48;6.10;;;;;;;;;;4411334;32;20049;-77
2022/10/17 12:28:16;;;;;;;9.00;6.87;;;;;;;;;;4421574;32;20053;-78
2022/10/17 12:30:49;;;;;;;8.98;6.40;;;;;;;;;;4423041;32;20096;-77
2022/10/17 12:33:20;;;;;;;11.45;6.87;;;;;;;;;;4407288;32;20064;-77
2022/10/17 12:35:46;;;;;;;7.28;5.82;;;;;;;;;;4407388;32;20017;-78
2022/10/17 12:38:20;;;;;;;9.10;6.22;;;;;;;;;;4421516;32;20436;-78
2022/10/17 12:40:48;;;;;;;10.73;7.00;;;;;;;;;;4408441;32;20075;-78
2022/10/17 12:43:16;;;;;;;9.57;7.00;;;;;;;;;;4421217;32;20091;-78
2022/10/17 12:45:51;;;;;;;11.10;6.78;;;;;;;;;;4422275;32;20071;-79
2022/10/17 12:48:34;;;;;;;9.05;7.12;;;;;;;;;;4408313;32;20022;-78
2022/10/17 12:51:02;;;;;;;14.95;7.32;;;;;;;;;;4424103;32;20082;-79
2022/10/17 12:53:47;;;;;;;8.30;6.85;;;;;;;;;;4424305;32;20026;-79
2022/10/17 12:56:17;;;;;;;11.40;7.80;;;;;;;;;;4421427;32;20456;-79
2022/10/17 12:58:44;;;;;;;10.73;6.95;;;;;;;;;;4411342;32;20022;-80
2022/10/17 13:01:15;;;;;;;8.48;7.55;;;;;;;;;;4427177;32;20017;-79
2022/10/17 13:03:45;;;;;;;13.50;8.32;;;;;;;;;;4425698;32;20018;-80
2022/10/17 13:06:16;;;;;;;11.07;8.35;;;;;;;;;;4425160;32;20022;-79
2022/10/17 13:08:46;;;;;;;9.55;7.55;;;;;;;;;;4426112;32;20399;-79
2022/10/17 13:11:12;;;;;;;15.70;10.15;;;;;;;;;;4423936;32;20017;-79
2022/10/17 13:13:40;;;;;;;8.13;6.82;;;;;;;;;;4408660;32;20014;-79
2022/10/17 13:16:06;;;;;;;10.65;7.65;;;;;;;;;;4423171;32;20072;-79
2022/10/17 13:18:31;;;;;;;11.68;8.43;;;;;;;;;;4423943;32;20368;-79
2022/10/17 13:20:58;;;;;;;8.75;7.10;;;;;;;;;;4423230;32;20078;-79
2022/10/17 13:23:24;;;;;;;10.50;8.68;;;;;;;;;;4407436;32;20395;-80
2022/10/17 13:26:19;;;;;;;12.20;7.80;;;;;;;;;;4421371;32;20031;-80
2022/10/17 13:28:45;;;;;;;9.20;7.15;;;;;;;;;;4408476;32;20091;-80
2022/10/17 13:31:27;;;;;;;12.57;7.93;;;;;;;;;;4420343;32;20041;-80
2022/10/17 13:33:55;;;;;;;11.27;8.35;;;;;;;;;;4420432;32;20034;-79
2022/10/17 13:36:20;;;;;;;8.55;6.37;;;;;;;;;;4418710;32;20022;-79
2022/10/17 13:38:45;;;;;;;8.73;7.37;;;;;;;;;;4419502;32;20099;-79
2022/10/17 13:41:12;;;;;;;7.70;5.78;;;;;;;;;;4423531;32;20079;-79
2022/10/17 13:43:38;;;;;;;12.23;6.43;;;;;;;;;;4413315;32;20018;-80
2022/10/17 13:46:04;;;;;;;10.43;6.40;;;;;;;;;;4427311;32;20076;-79
2022/10/17 13:48:31;;;;;;;6.68;5.53;;;;;;;;;;4419700;32;20056;-79
2022/10/17 13:50:57;;;;;;;10.23;6.10;;;;;;;;;;4420579;32;20410;-79
2022/10/17 13:53:30;;;;;;;10.15;6.20;;;;;;;;;;4418284;32;20048;-79
2022/10/17 13:56:03;;;;;;;10.10;5.87;;;;;;;;;;4420278;32;20014;-80
2022/10/17 13:58:30;;;;;;;8.98;6.40;;;;;;;;;;4420105;32;20052;-80
2022/10/17 14:00:55;;;;;;;8.85;5.75;;;;;;;;;;4406211;32;20101;-80
2022/10/17 14:03:21;;;;;;;9.98;6.28;;;;;;;;;;4420035;32;20026;-78
2022/10/17 14:06:01;;;;;;;9.48;6.20;;;;;;;;;;4419925;32;20026;-79
2022/10/17 14:08:26;;;;;;;7.35;4.75;;;;;;;;;;4406108;32;20078;-79
2022/10/17 14:10:52;;;;;;;9.50;5.37;;;;;;;;;;4420261;32;20018;-79
2022/10/17 14:13:27;;;;;;;9.32;4.15;;;;;;;;;;4406674;32;20440;-78
2022/10/17 14:15:54;;;;;;;7.00;5.18;;;;;;;;;;4406621;32;20036;-80
2022/10/17 14:18:30;;;;;;;7.70;4.40;;;;;;;;;;4423429;32;20027;-79
2022/10/17 14:20:55;;;;;;;7.70;4.78;;;;;;;;;;4426209;32;20113;-79
2022/10/17 14:23:27;;;;;;;9.70;4.22;;;;;;;;;;4426023;32;20388;-79
2022/10/17 14:26:02;;;;;;;9.90;4.43;;;;;;;;;;4423216;32;20033;-80
2022/10/17 14:28:27;;;;;;;7.37;3.80;;;;;;;;;;4408743;32;20044;-81
2022/10/17 14:30:53;;;;;;;7.03;3.85;;;;;;;;;;4409118;32;20026;-80
2022/10/17 14:33:29;;;;;;;9.77;4.20;;;;;;;;;;4410315;32;20348;-79